sensor_id;sensor_type;location;lat;lon;timestamp;temperature;humidity
56076;DHT22;41951;49.022;12.066;2022-09-06T00:00:56;18.20;99.90
56076;DHT22;41951;49.022;12.066;2022-09-06T00:03:22;18.30;99.90
56076;DHT22;41951;49.022;12.066;2022-09-06T00:05:48;18.30;99.90
56076;DHT22;41951;49.022;12.066;2022-09-06T00:08:14;18.30;99.90
56076;DHT22;41951;49.022;12.066;2022-09-06T00:10:40;18.30;99.90
56076;DHT22;41951;49.022;12.066;2022-09-06T00:13:07;18.30;99.90
56076;DHT22;41951;49.022;12.066;2022-09-06T00:15:34;18.20;99.90
56076;DHT22;41951;49.022;12.066;2022-09-06T00:18:03;18.20;99.90
56076;DHT22;41951;49.022;12.066;2022-09-06T00:20:30;18.20;99.90
56076;DHT22;41951;49.022;12.066;2022-09-06T00:23:00;18.10;99.90
56076;DHT22;41951;49.022;12.066;2022-09-06T00:25:27;18.00;99.90
56076;DHT22;41951;49.022;12.066;2022-09-06T00:27:58;18.00;99.90
56076;DHT22;41951;49.022;12.066;2022-09-06T00:30:25;17.90;99.90
56076;DHT22;41951;49.022;12.066;2022-09-06T00:32:52;17.80;99.90
56076;DHT22;41951;49.022;12.066;2022-09-06T00:35:18;17.70;99.90
56076;DHT22;41951;49.022;12.066;2022-09-06T00:37:43;17.60;99.90
56076;DHT22;41951;49.022;12.066;2022-09-06T00:40:09;17.60;99.90
56076;DHT22;41951;49.022;12.066;2022-09-06T00:42:35;17.60;99.90
56076;DHT22;41951;49.022;12.066;2022-09-06T00:45:01;17.70;99.90
56076;DHT22;41951;49.022;12.066;2022-09-06T00:47:29;17.60;99.90
56076;DHT22;41951;49.022;12.066;2022-09-06T00:49:56;17.60;99.90
56076;DHT22;41951;49.022;12.066;2022-09-06T00:52:23;17.60;99.90
56076;DHT22;41951;49.022;12.066;2022-09-06T00:54:50;17.50;99.90
56076;DHT22;41951;49.022;12.066;2022-09-06T00:57:17;17.50;99.90
56076;DHT22;41951;49.022;12.066;2022-09-06T00:59:44;17.40;99.90
56076;DHT22;41951;49.022;12.066;2022-09-06T01:02:10;17.40;99.90
56076;DHT22;41951;49.022;12.066;2022-09-06T01:04:39;17.40;99.90
56076;DHT22;41951;49.022;12.066;2022-09-06T01:10:15;17.50;99.90
56076;DHT22;41951;49.022;12.066;2022-09-06T01:18:28;17.50;99.90
56076;DHT22;41951;49.022;12.066;2022-09-06T01:23:54;17.40;99.90
56076;DHT22;41951;49.022;12.066;2022-09-06T01:26:47;17.30;99.90
56076;DHT22;41951;49.022;12.066;2022-09-06T01:32:30;17.30;99.90
56076;DHT22;41951;49.022;12.066;2022-09-06T01:37:38;17.10;99.90
56076;DHT22;41951;49.022;12.066;2022-09-06T01:40:04;17.00;99.90
56076;DHT22;41951;49.022;12.066;2022-09-06T01:42:32;16.90;99.90
56076;DHT22;41951;49.022;12.066;2022-09-06T01:45:06;16.90;99.90
56076;DHT22;41951;49.022;12.066;2022-09-06T02:01:07;16.80;99.90
56076;DHT22;41951;49.022;12.066;2022-09-06T02:04:01;16.80;99.90
56076;DHT22;41951;49.022;12.066;2022-09-06T02:06:32;16.70;99.90
56076;DHT22;41951;49.022;12.066;2022-09-06T02:09:06;16.80;99.90
56076;DHT22;41951;49.022;12.066;2022-09-06T02:11:38;16.70;99.90
56076;DHT22;41951;49.022;12.066;2022-09-06T02:14:12;16.60;99.90
56076;DHT22;41951;49.022;12.066;2022-09-06T02:16:41;16.60;99.90
56076;DHT22;41951;49.022;12.066;2022-09-06T02:19:16;16.60;99.90
56076;DHT22;41951;49.022;12.066;2022-09-06T02:21:47;16.70;99.90
56076;DHT22;41951;49.022;12.066;2022-09-06T02:24:22;16.60;99.90
56076;DHT22;41951;49.022;12.066;2022-09-06T02:26:49;16.60;99.90
56076;DHT22;41951;49.022;12.066;2022-09-06T02:29:16;16.50;99.90
56076;DHT22;41951;49.022;12.066;2022-09-06T02:34:09;16.40;99.90
56076;DHT22;41951;49.022;12.066;2022-09-06T02:36:38;16.40;99.90
56076;DHT22;41951;49.022;12.066;2022-09-06T02:39:04;16.50;99.90
56076;DHT22;41951;49.022;12.066;2022-09-06T02:41:30;16.50;99.90
56076;DHT22;41951;49.022;12.066;2022-09-06T02:43:56;16.60;99.90
56076;DHT22;41951;49.022;12.066;2022-09-06T02:46:21;16.60;99.90
56076;DHT22;41951;49.022;12.066;2022-09-06T02:48:48;16.60;99.90
56076;DHT22;41951;49.022;12.066;2022-09-06T02:51:14;16.40;99.90
56076;DHT22;41951;49.022;12.066;2022-09-06T02:53:40;16.40;99.90
56076;DHT22;41951;49.022;12.066;2022-09-06T02:56:06;16.30;99.90
56076;DHT22;41951;49.022;12.066;2022-09-06T02:58:31;16.40;99.90
56076;DHT22;41951;49.022;12.066;2022-09-06T03:00:57;16.40;99.90
56076;DHT22;41951;49.022;12.066;2022-09-06T03:03:23;16.50;99.90
56076;DHT22;41951;49.022;12.066;2022-09-06T03:05:51;16.50;99.90
56076;DHT22;41951;49.022;12.066;2022-09-06T03:08:18;16.50;99.90
56076;DHT22;41951;49.022;12.066;2022-09-06T03:10:51;16.50;99.90
56076;DHT22;41951;49.022;12.066;2022-09-06T03:13:17;16.50;99.90
56076;DHT22;41951;49.022;12.066;2022-09-06T03:15:43;16.50;99.90
56076;DHT22;41951;49.022;12.066;2022-09-06T03:18:08;16.50;99.90
56076;DHT22;41951;49.022;12.066;2022-09-06T03:20:34;16.40;99.90
56076;DHT22;41951;49.022;12.066;2022-09-06T03:22:59;16.30;99.90
56076;DHT22;41951;49.022;12.066;2022-09-06T03:25:25;16.10;99.90
56076;DHT22;41951;49.022;12.066;2022-09-06T03:27:51;16.00;99.90
56076;DHT22;41951;49.022;12.066;2022-09-06T03:30:16;16.00;99.90
56076;DHT22;41951;49.022;12.066;2022-09-06T03:32:42;15.90;99.90
56076;DHT22;41951;49.022;12.066;2022-09-06T03:35:08;15.90;99.90
56076;DHT22;41951;49.022;12.066;2022-09-06T03:37:34;15.80;99.90
56076;DHT22;41951;49.022;12.066;2022-09-06T03:39:59;15.60;99.90
56076;DHT22;41951;49.022;12.066;2022-09-06T03:42:25;15.50;99.90
56076;DHT22;41951;49.022;12.066;2022-09-06T03:44:52;15.40;99.90
56076;DHT22;41951;49.022;12.066;2022-09-06T03:47:18;15.50;99.90
56076;DHT22;41951;49.022;12.066;2022-09-06T03:49:44;15.60;99.90
56076;DHT22;41951;49.022;12.066;2022-09-06T03:52:09;15.60;99.90
56076;DHT22;41951;49.022;12.066;2022-09-06T03:54:35;15.60;99.90
56076;DHT22;41951;49.022;12.066;2022-09-06T03:57:01;15.70;99.90
56076;DHT22;41951;49.022;12.066;2022-09-06T03:59:26;15.70;99.90
56076;DHT22;41951;49.022;12.066;2022-09-06T04:01:52;15.70;99.90
56076;DHT22;41951;49.022;12.066;2022-09-06T04:04:18;15.70;99.90
56076;DHT22;41951;49.022;12.066;2022-09-06T04:06:44;15.70;99.90
56076;DHT22;41951;49.022;12.066;2022-09-06T04:09:09;15.80;99.90
56076;DHT22;41951;49.022;12.066;2022-09-06T04:11:35;15.80;99.90
56076;DHT22;41951;49.022;12.066;2022-09-06T04:14:00;15.80;99.90
56076;DHT22;41951;49.022;12.066;2022-09-06T04:16:26;15.70;99.90
56076;DHT22;41951;49.022;12.066;2022-09-06T04:18:51;15.70;99.90
56076;DHT22;41951;49.022;12.066;2022-09-06T04:21:17;15.60;99.90
56076;DHT22;41951;49.022;12.066;2022-09-06T04:23:43;15.70;99.90
56076;DHT22;41951;49.022;12.066;2022-09-06T04:26:09;15.60;99.90
56076;DHT22;41951;49.022;12.066;2022-09-06T04:28:34;15.60;99.90
56076;DHT22;41951;49.022;12.066;2022-09-06T04:31:01;15.70;99.90
56076;DHT22;41951;49.022;12.066;2022-09-06T04:33:28;15.80;99.90
56076;DHT22;41951;49.022;12.066;2022-09-06T04:35:56;15.70;99.90
56076;DHT22;41951;49.022;12.066;2022-09-06T04:38:26;15.60;99.90
56076;DHT22;41951;49.022;12.066;2022-09-06T04:40:52;15.50;99.90
56076;DHT22;41951;49.022;12.066;2022-09-06T04:43:20;15.50;99.90
56076;DHT22;41951;49.022;12.066;2022-09-06T04:45:46;15.30;99.90
56076;DHT22;41951;49.022;12.066;2022-09-06T04:48:12;15.30;99.90
56076;DHT22;41951;49.022;12.066;2022-09-06T04:50:38;15.20;99.90
56076;DHT22;41951;49.022;12.066;2022-09-06T04:53:04;15.20;99.90
56076;DHT22;41951;49.022;12.066;2022-09-06T04:55:30;15.30;99.90
56076;DHT22;41951;49.022;12.066;2022-09-06T04:57:59;15.40;99.90
56076;DHT22;41951;49.022;12.066;2022-09-06T05:00:30;15.50;99.90
56076;DHT22;41951;49.022;12.066;2022-09-06T05:02:56;15.50;99.90
56076;DHT22;41951;49.022;12.066;2022-09-06T05:05:22;15.30;99.90
56076;DHT22;41951;49.022;12.066;2022-09-06T05:07:51;15.40;99.90
56076;DHT22;41951;49.022;12.066;2022-09-06T05:10:17;15.40;99.90
56076;DHT22;41951;49.022;12.066;2022-09-06T05:12:51;15.50;99.90
56076;DHT22;41951;49.022;12.066;2022-09-06T05:15:17;15.70;99.90
56076;DHT22;41951;49.022;12.066;2022-09-06T05:17:43;15.80;99.90
56076;DHT22;41951;49.022;12.066;2022-09-06T05:20:10;15.90;99.90
56076;DHT22;41951;49.022;12.066;2022-09-06T05:22:39;16.00;99.90
56076;DHT22;41951;49.022;12.066;2022-09-06T05:25:06;16.00;99.90
56076;DHT22;41951;49.022;12.066;2022-09-06T05:27:32;16.00;99.90
56076;DHT22;41951;49.022;12.066;2022-09-06T05:29:58;15.90;99.90
56076;DHT22;41951;49.022;12.066;2022-09-06T05:32:23;15.90;99.90
56076;DHT22;41951;49.022;12.066;2022-09-06T05:34:49;15.80;99.90
56076;DHT22;41951;49.022;12.066;2022-09-06T05:37:14;15.70;99.90
56076;DHT22;41951;49.022;12.066;2022-09-06T05:39:40;15.70;99.90
56076;DHT22;41951;49.022;12.066;2022-09-06T05:42:06;15.70;99.90
56076;DHT22;41951;49.022;12.066;2022-09-06T05:44:33;15.80;99.90
56076;DHT22;41951;49.022;12.066;2022-09-06T05:46:59;15.90;99.90
56076;DHT22;41951;49.022;12.066;2022-09-06T05:49:25;15.90;99.90
56076;DHT22;41951;49.022;12.066;2022-09-06T05:51:51;16.10;99.90
56076;DHT22;41951;49.022;12.066;2022-09-06T05:54:16;16.10;99.90
56076;DHT22;41951;49.022;12.066;2022-09-06T05:56:42;16.10;99.90
56076;DHT22;41951;49.022;12.066;2022-09-06T05:59:08;16.10;99.90
56076;DHT22;41951;49.022;12.066;2022-09-06T06:01:33;16.30;99.90
56076;DHT22;41951;49.022;12.066;2022-09-06T06:04:01;16.40;99.90
56076;DHT22;41951;49.022;12.066;2022-09-06T06:06:29;16.40;99.90
56076;DHT22;41951;49.022;12.066;2022-09-06T06:08:55;16.50;99.90
56076;DHT22;41951;49.022;12.066;2022-09-06T06:11:22;16.60;99.90
56076;DHT22;41951;49.022;12.066;2022-09-06T06:13:47;16.70;99.90
56076;DHT22;41951;49.022;12.066;2022-09-06T06:16:15;16.80;99.90
56076;DHT22;41951;49.022;12.066;2022-09-06T06:18:41;16.90;99.90
56076;DHT22;41951;49.022;12.066;2022-09-06T06:21:21;17.00;99.90
56076;DHT22;41951;49.022;12.066;2022-09-06T06:23:49;17.10;99.90
56076;DHT22;41951;49.022;12.066;2022-09-06T06:26:15;17.10;99.90
56076;DHT22;41951;49.022;12.066;2022-09-06T06:28:41;17.20;99.90
56076;DHT22;41951;49.022;12.066;2022-09-06T06:31:08;17.30;99.90
56076;DHT22;41951;49.022;12.066;2022-09-06T06:33:34;17.40;99.90
56076;DHT22;41951;49.022;12.066;2022-09-06T06:38:39;17.50;99.90
56076;DHT22;41951;49.022;12.066;2022-09-06T06:41:06;17.50;99.90
56076;DHT22;41951;49.022;12.066;2022-09-06T06:43:32;17.60;99.90
56076;DHT22;41951;49.022;12.066;2022-09-06T06:46:16;17.80;99.90
56076;DHT22;41951;49.022;12.066;2022-09-06T06:48:43;17.90;99.90
56076;DHT22;41951;49.022;12.066;2022-09-06T06:51:11;18.10;99.90
56076;DHT22;41951;49.022;12.066;2022-09-06T06:53:37;18.20;99.90
56076;DHT22;41951;49.022;12.066;2022-09-06T06:58:42;18.50;99.90
56076;DHT22;41951;49.022;12.066;2022-09-06T07:01:09;18.70;99.90
56076;DHT22;41951;49.022;12.066;2022-09-06T07:03:34;18.80;99.90
56076;DHT22;41951;49.022;12.066;2022-09-06T07:06:01;18.90;99.90
56076;DHT22;41951;49.022;12.066;2022-09-06T07:08:27;19.00;99.90
56076;DHT22;41951;49.022;12.066;2022-09-06T07:10:53;19.00;99.90
56076;DHT22;41951;49.022;12.066;2022-09-06T07:13:18;19.20;99.90
56076;DHT22;41951;49.022;12.066;2022-09-06T07:15:44;19.30;99.90
56076;DHT22;41951;49.022;12.066;2022-09-06T07:18:09;19.30;99.90
56076;DHT22;41951;49.022;12.066;2022-09-06T07:20:35;19.40;99.90
56076;DHT22;41951;49.022;12.066;2022-09-06T07:23:02;19.50;99.90
56076;DHT22;41951;49.022;12.066;2022-09-06T07:25:29;19.60;99.90
56076;DHT22;41951;49.022;12.066;2022-09-06T07:27:57;19.60;99.90
56076;DHT22;41951;49.022;12.066;2022-09-06T07:30:23;19.70;99.90
56076;DHT22;41951;49.022;12.066;2022-09-06T07:32:48;19.70;99.90
56076;DHT22;41951;49.022;12.066;2022-09-06T07:35:14;19.90;99.90
56076;DHT22;41951;49.022;12.066;2022-09-06T07:37:40;20.00;99.90
56076;DHT22;41951;49.022;12.066;2022-09-06T07:40:06;20.00;99.90
56076;DHT22;41951;49.022;12.066;2022-09-06T07:42:32;20.00;99.90
56076;DHT22;41951;49.022;12.066;2022-09-06T07:44:58;20.10;99.90
56076;DHT22;41951;49.022;12.066;2022-09-06T07:47:24;20.10;99.90
56076;DHT22;41951;49.022;12.066;2022-09-06T07:49:49;20.10;99.90
56076;DHT22;41951;49.022;12.066;2022-09-06T07:52:15;20.10;99.90
56076;DHT22;41951;49.022;12.066;2022-09-06T07:54:41;20.10;99.90
56076;DHT22;41951;49.022;12.066;2022-09-06T07:57:06;20.10;99.90
56076;DHT22;41951;49.022;12.066;2022-09-06T07:59:32;20.10;99.90
56076;DHT22;41951;49.022;12.066;2022-09-06T08:01:57;20.10;99.90
56076;DHT22;41951;49.022;12.066;2022-09-06T08:04:23;20.10;99.90
56076;DHT22;41951;49.022;12.066;2022-09-06T08:06:49;20.10;99.90
56076;DHT22;41951;49.022;12.066;2022-09-06T08:09:16;20.10;99.90
56076;DHT22;41951;49.022;12.066;2022-09-06T08:11:42;20.10;99.90
56076;DHT22;41951;49.022;12.066;2022-09-06T08:14:08;20.10;99.90
56076;DHT22;41951;49.022;12.066;2022-09-06T08:16:35;20.10;99.90
56076;DHT22;41951;49.022;12.066;2022-09-06T08:19:04;20.10;99.90
56076;DHT22;41951;49.022;12.066;2022-09-06T08:21:31;20.20;99.90
56076;DHT22;41951;49.022;12.066;2022-09-06T08:24:07;20.30;99.90
56076;DHT22;41951;49.022;12.066;2022-09-06T08:26:37;20.40;99.90
56076;DHT22;41951;49.022;12.066;2022-09-06T08:29:09;20.30;99.90
56076;DHT22;41951;49.022;12.066;2022-09-06T08:31:37;20.40;99.90
56076;DHT22;41951;49.022;12.066;2022-09-06T08:34:03;20.50;99.90
56076;DHT22;41951;49.022;12.066;2022-09-06T08:36:29;20.60;99.90
56076;DHT22;41951;49.022;12.066;2022-09-06T08:38:56;20.70;99.90
56076;DHT22;41951;49.022;12.066;2022-09-06T08:44:11;21.00;99.90
56076;DHT22;41951;49.022;12.066;2022-09-06T08:46:44;21.10;99.90
56076;DHT22;41951;49.022;12.066;2022-09-06T08:49:12;21.10;99.90
56076;DHT22;41951;49.022;12.066;2022-09-06T09:00:13;21.50;99.90
56076;DHT22;41951;49.022;12.066;2022-09-06T09:02:52;21.60;99.90
56076;DHT22;41951;49.022;12.066;2022-09-06T09:05:32;21.70;99.90
56076;DHT22;41951;49.022;12.066;2022-09-06T09:11:03;21.80;99.90
56076;DHT22;41951;49.022;12.066;2022-09-06T09:13:52;21.90;99.90
56076;DHT22;41951;49.022;12.066;2022-09-06T09:16:18;21.90;99.90
56076;DHT22;41951;49.022;12.066;2022-09-06T09:18:48;22.00;99.90
56076;DHT22;41951;49.022;12.066;2022-09-06T09:21:19;22.20;99.90
56076;DHT22;41951;49.022;12.066;2022-09-06T09:23:54;22.30;99.90
56076;DHT22;41951;49.022;12.066;2022-09-06T09:26:22;22.40;99.90
56076;DHT22;41951;49.022;12.066;2022-09-06T09:31:34;22.60;99.90
56076;DHT22;41951;49.022;12.066;2022-09-06T09:34:00;22.70;99.90
56076;DHT22;41951;49.022;12.066;2022-09-06T09:36:29;22.90;99.90
56076;DHT22;41951;49.022;12.066;2022-09-06T09:38:55;22.90;99.90
56076;DHT22;41951;49.022;12.066;2022-09-06T09:41:32;23.00;99.90
56076;DHT22;41951;49.022;12.066;2022-09-06T09:44:03;23.00;99.90
56076;DHT22;41951;49.022;12.066;2022-09-06T09:46:32;23.00;99.90
56076;DHT22;41951;49.022;12.066;2022-09-06T09:51:25;23.10;99.90
56076;DHT22;41951;49.022;12.066;2022-09-06T09:53:59;23.10;99.90
56076;DHT22;41951;49.022;12.066;2022-09-06T09:56:46;23.10;99.90
56076;DHT22;41951;49.022;12.066;2022-09-06T10:01:45;23.20;99.90
56076;DHT22;41951;49.022;12.066;2022-09-06T10:04:21;23.30;99.90
56076;DHT22;41951;49.022;12.066;2022-09-06T10:06:49;23.30;99.90
56076;DHT22;41951;49.022;12.066;2022-09-06T10:09:29;23.40;99.90
56076;DHT22;41951;49.022;12.066;2022-09-06T10:11:57;23.50;99.90
56076;DHT22;41951;49.022;12.066;2022-09-06T10:14:39;23.50;99.90
56076;DHT22;41951;49.022;12.066;2022-09-06T10:17:05;23.60;99.90
56076;DHT22;41951;49.022;12.066;2022-09-06T10:22:07;23.60;99.90
56076;DHT22;41951;49.022;12.066;2022-09-06T10:24:52;23.70;99.90
56076;DHT22;41951;49.022;12.066;2022-09-06T10:27:25;23.80;99.90
56076;DHT22;41951;49.022;12.066;2022-09-06T10:30:08;23.90;99.90
56076;DHT22;41951;49.022;12.066;2022-09-06T10:32:44;23.90;99.90
56076;DHT22;41951;49.022;12.066;2022-09-06T10:35:24;24.00;99.90
56076;DHT22;41951;49.022;12.066;2022-09-06T10:38:07;24.00;99.90
56076;DHT22;41951;49.022;12.066;2022-09-06T10:43:19;24.20;99.90
56076;DHT22;41951;49.022;12.066;2022-09-06T10:46:10;24.10;99.90
56076;DHT22;41951;49.022;12.066;2022-09-06T10:48:44;24.20;99.90
56076;DHT22;41951;49.022;12.066;2022-09-06T10:51:40;24.20;99.90
56076;DHT22;41951;49.022;12.066;2022-09-06T10:54:22;24.20;99.90
56076;DHT22;41951;49.022;12.066;2022-09-06T10:59:51;24.30;99.90
56076;DHT22;41951;49.022;12.066;2022-09-06T11:07:51;24.50;99.90
56076;DHT22;41951;49.022;12.066;2022-09-06T11:10:26;24.70;99.90
56076;DHT22;41951;49.022;12.066;2022-09-06T11:15:28;24.70;99.90
56076;DHT22;41951;49.022;12.066;2022-09-06T11:21:15;24.90;99.90
56076;DHT22;41951;49.022;12.066;2022-09-06T11:26:32;24.90;99.90
56076;DHT22;41951;49.022;12.066;2022-09-06T11:29:05;25.00;99.90
56076;DHT22;41951;49.022;12.066;2022-09-06T11:31:34;25.00;99.90
56076;DHT22;41951;49.022;12.066;2022-09-06T11:34:32;25.10;99.90
56076;DHT22;41951;49.022;12.066;2022-09-06T11:37:25;25.10;99.90
56076;DHT22;41951;49.022;12.066;2022-09-06T11:40:16;25.20;99.90
56076;DHT22;41951;49.022;12.066;2022-09-06T11:45:13;25.20;99.90
56076;DHT22;41951;49.022;12.066;2022-09-06T11:47:47;25.20;99.90
56076;DHT22;41951;49.022;12.066;2022-09-06T11:57:57;25.80;99.90
56076;DHT22;41951;49.022;12.066;2022-09-06T12:02:53;26.00;99.90
56076;DHT22;41951;49.022;12.066;2022-09-06T12:05:25;26.00;99.90
56076;DHT22;41951;49.022;12.066;2022-09-06T12:16:09;26.60;98.60
56076;DHT22;41951;49.022;12.066;2022-09-06T12:21:08;26.50;98.70
56076;DHT22;41951;49.022;12.066;2022-09-06T12:26:09;26.80;98.60
56076;DHT22;41951;49.022;12.066;2022-09-06T12:28:48;27.00;98.30
56076;DHT22;41951;49.022;12.066;2022-09-06T12:31:30;27.00;97.90
56076;DHT22;41951;49.022;12.066;2022-09-06T12:33:57;27.20;97.90
56076;DHT22;41951;49.022;12.066;2022-09-06T12:36:30;27.30;97.40
56076;DHT22;41951;49.022;12.066;2022-09-06T12:38:59;27.40;97.30
56076;DHT22;41951;49.022;12.066;2022-09-06T12:41:31;27.40;96.90
56076;DHT22;41951;49.022;12.066;2022-09-06T12:44:03;27.40;96.50
56076;DHT22;41951;49.022;12.066;2022-09-06T12:46:30;27.50;96.50
56076;DHT22;41951;49.022;12.066;2022-09-06T12:49:11;27.70;96.00
56076;DHT22;41951;49.022;12.066;2022-09-06T12:51:37;27.60;95.70
56076;DHT22;41951;49.022;12.066;2022-09-06T12:54:15;27.80;95.30
56076;DHT22;41951;49.022;12.066;2022-09-06T12:56:42;27.80;95.30
56076;DHT22;41951;49.022;12.066;2022-09-06T12:59:22;27.90;95.30
56076;DHT22;41951;49.022;12.066;2022-09-06T13:02:05;28.20;94.80
56076;DHT22;41951;49.022;12.066;2022-09-06T13:04:42;28.30;94.60
56076;DHT22;41951;49.022;12.066;2022-09-06T13:07:13;28.30;94.30
56076;DHT22;41951;49.022;12.066;2022-09-06T13:09:42;28.40;93.90
56076;DHT22;41951;49.022;12.066;2022-09-06T13:12:29;28.60;94.10
56076;DHT22;41951;49.022;12.066;2022-09-06T13:14:58;28.70;93.90
56076;DHT22;41951;49.022;12.066;2022-09-06T13:17:29;28.80;93.40
56076;DHT22;41951;49.022;12.066;2022-09-06T13:19:54;28.50;93.10
56076;DHT22;41951;49.022;12.066;2022-09-06T13:27:46;28.80;92.80
56076;DHT22;41951;49.022;12.066;2022-09-06T13:32:59;28.60;93.00
56076;DHT22;41951;49.022;12.066;2022-09-06T13:35:29;28.40;93.00
56076;DHT22;41951;49.022;12.066;2022-09-06T13:38:31;28.50;93.00
56076;DHT22;41951;49.022;12.066;2022-09-06T13:40:57;28.70;92.90
56076;DHT22;41951;49.022;12.066;2022-09-06T13:43:24;28.90;92.80
56076;DHT22;41951;49.022;12.066;2022-09-06T13:46:16;29.00;92.60
56076;DHT22;41951;49.022;12.066;2022-09-06T13:48:42;29.00;92.80
56076;DHT22;41951;49.022;12.066;2022-09-06T13:51:08;29.10;92.60
56076;DHT22;41951;49.022;12.066;2022-09-06T13:53:34;29.00;92.30
56076;DHT22;41951;49.022;12.066;2022-09-06T13:56:00;28.80;92.50
56076;DHT22;41951;49.022;12.066;2022-09-06T13:58:26;28.60;92.20
56076;DHT22;41951;49.022;12.066;2022-09-06T14:00:53;28.70;92.60
56076;DHT22;41951;49.022;12.066;2022-09-06T14:03:28;28.50;92.60
56076;DHT22;41951;49.022;12.066;2022-09-06T14:05:55;28.40;92.90
56076;DHT22;41951;49.022;12.066;2022-09-06T14:08:21;28.50;93.10
56076;DHT22;41951;49.022;12.066;2022-09-06T14:10:46;28.60;93.20
56076;DHT22;41951;49.022;12.066;2022-09-06T14:13:14;28.70;93.00
56076;DHT22;41951;49.022;12.066;2022-09-06T14:15:40;28.70;93.10
56076;DHT22;41951;49.022;12.066;2022-09-06T14:18:05;28.70;93.10
56076;DHT22;41951;49.022;12.066;2022-09-06T14:20:31;28.90;93.10
56076;DHT22;41951;49.022;12.066;2022-09-06T14:22:57;29.20;92.70
56076;DHT22;41951;49.022;12.066;2022-09-06T14:25:22;29.20;92.40
56076;DHT22;41951;49.022;12.066;2022-09-06T14:27:48;29.30;92.30
56076;DHT22;41951;49.022;12.066;2022-09-06T14:30:14;29.30;92.10
56076;DHT22;41951;49.022;12.066;2022-09-06T14:32:40;29.20;91.90
56076;DHT22;41951;49.022;12.066;2022-09-06T14:35:05;29.20;91.70
56076;DHT22;41951;49.022;12.066;2022-09-06T14:37:32;29.30;91.50
56076;DHT22;41951;49.022;12.066;2022-09-06T14:39:58;29.20;91.50
56076;DHT22;41951;49.022;12.066;2022-09-06T14:42:23;29.10;91.50
56076;DHT22;41951;49.022;12.066;2022-09-06T14:44:50;29.00;91.50
56076;DHT22;41951;49.022;12.066;2022-09-06T14:47:16;29.00;91.70
56076;DHT22;41951;49.022;12.066;2022-09-06T14:49:41;29.10;91.90
56076;DHT22;41951;49.022;12.066;2022-09-06T14:52:07;29.10;91.80
56076;DHT22;41951;49.022;12.066;2022-09-06T14:54:33;29.40;91.80
56076;DHT22;41951;49.022;12.066;2022-09-06T14:56:58;29.50;91.60
56076;DHT22;41951;49.022;12.066;2022-09-06T14:59:24;29.40;91.50
56076;DHT22;41951;49.022;12.066;2022-09-06T15:01:50;29.50;91.40
56076;DHT22;41951;49.022;12.066;2022-09-06T15:04:16;29.90;91.30
56076;DHT22;41951;49.022;12.066;2022-09-06T15:06:42;30.30;90.60
56076;DHT22;41951;49.022;12.066;2022-09-06T15:09:15;29.90;90.40
56076;DHT22;41951;49.022;12.066;2022-09-06T15:11:45;29.50;90.70
56076;DHT22;41951;49.022;12.066;2022-09-06T15:14:12;29.70;91.00
56076;DHT22;41951;49.022;12.066;2022-09-06T15:16:38;30.20;90.30
56076;DHT22;41951;49.022;12.066;2022-09-06T15:19:03;30.70;90.50
56076;DHT22;41951;49.022;12.066;2022-09-06T15:21:30;32.00;90.10
56076;DHT22;41951;49.022;12.066;2022-09-06T15:23:56;34.30;87.90
56076;DHT22;41951;49.022;12.066;2022-09-06T15:26:21;37.00;82.90
56076;DHT22;41951;49.022;12.066;2022-09-06T15:28:47;38.40;71.90
56076;DHT22;41951;49.022;12.066;2022-09-06T15:31:14;39.00;71.40
56076;DHT22;41951;49.022;12.066;2022-09-06T15:33:40;38.80;68.20
56076;DHT22;41951;49.022;12.066;2022-09-06T15:36:07;38.80;65.80
56076;DHT22;41951;49.022;12.066;2022-09-06T15:38:34;38.30;64.80
56076;DHT22;41951;49.022;12.066;2022-09-06T15:41:08;38.20;64.60
56076;DHT22;41951;49.022;12.066;2022-09-06T15:43:35;37.90;63.40
56076;DHT22;41951;49.022;12.066;2022-09-06T15:46:02;36.70;63.90
56076;DHT22;41951;49.022;12.066;2022-09-06T15:48:28;34.70;66.70
56076;DHT22;41951;49.022;12.066;2022-09-06T15:51:03;33.60;68.10
56076;DHT22;41951;49.022;12.066;2022-09-06T15:53:29;32.10;70.90
56076;DHT22;41951;49.022;12.066;2022-09-06T15:55:58;31.30;73.50
56076;DHT22;41951;49.022;12.066;2022-09-06T15:58:25;31.50;74.60
56076;DHT22;41951;49.022;12.066;2022-09-06T16:01:10;31.60;74.60
56076;DHT22;41951;49.022;12.066;2022-09-06T16:03:44;31.40;75.40
56076;DHT22;41951;49.022;12.066;2022-09-06T16:06:12;32.20;74.60
56076;DHT22;41951;49.022;12.066;2022-09-06T16:08:38;31.80;73.90
56076;DHT22;41951;49.022;12.066;2022-09-06T16:11:08;31.40;74.70
56076;DHT22;41951;49.022;12.066;2022-09-06T16:13:36;30.70;75.60
56076;DHT22;41951;49.022;12.066;2022-09-06T16:16:04;30.20;76.70
56076;DHT22;41951;49.022;12.066;2022-09-06T16:18:31;29.70;78.10
56076;DHT22;41951;49.022;12.066;2022-09-06T16:21:02;29.20;79.70
56076;DHT22;41951;49.022;12.066;2022-09-06T16:23:27;28.70;80.90
56076;DHT22;41951;49.022;12.066;2022-09-06T16:25:53;28.40;82.30
56076;DHT22;41951;49.022;12.066;2022-09-06T16:28:19;28.10;83.20
56076;DHT22;41951;49.022;12.066;2022-09-06T16:30:45;27.80;84.10
56076;DHT22;41951;49.022;12.066;2022-09-06T16:33:11;27.60;84.80
56076;DHT22;41951;49.022;12.066;2022-09-06T16:35:40;27.50;85.70
56076;DHT22;41951;49.022;12.066;2022-09-06T16:38:07;27.30;86.70
56076;DHT22;41951;49.022;12.066;2022-09-06T16:40:34;27.20;87.50
56076;DHT22;41951;49.022;12.066;2022-09-06T16:43:01;27.10;88.10
56076;DHT22;41951;49.022;12.066;2022-09-06T16:45:28;26.90;88.90
56076;DHT22;41951;49.022;12.066;2022-09-06T16:47:54;26.80;89.50
56076;DHT22;41951;49.022;12.066;2022-09-06T16:50:20;26.90;90.10
56076;DHT22;41951;49.022;12.066;2022-09-06T16:52:46;26.80;90.20
56076;DHT22;41951;49.022;12.066;2022-09-06T16:55:11;26.80;90.50
56076;DHT22;41951;49.022;12.066;2022-09-06T16:57:37;26.70;90.70
56076;DHT22;41951;49.022;12.066;2022-09-06T17:00:04;26.70;90.80
56076;DHT22;41951;49.022;12.066;2022-09-06T17:02:30;26.70;91.10
56076;DHT22;41951;49.022;12.066;2022-09-06T17:04:55;26.70;91.30
56076;DHT22;41951;49.022;12.066;2022-09-06T17:07:22;26.70;91.50
56076;DHT22;41951;49.022;12.066;2022-09-06T17:09:48;26.60;91.90
56076;DHT22;41951;49.022;12.066;2022-09-06T17:12:15;26.40;92.30
56076;DHT22;41951;49.022;12.066;2022-09-06T17:14:41;26.20;92.40
56076;DHT22;41951;49.022;12.066;2022-09-06T17:17:06;26.30;92.60
56076;DHT22;41951;49.022;12.066;2022-09-06T17:19:37;26.30;92.80
56076;DHT22;41951;49.022;12.066;2022-09-06T17:22:04;26.10;93.10